Time;durP1;ratioP1;P1;durP2;ratioP2;P2;SDS_P1;SDS_P2;PMS_P1;PMS_P2;Temp;Humidity;BMP_temperature;BMP_pressure;BME280_temperature;BME280_humidity;BME280_pressure;Samples;Min_cycle;Max_cycle;Signal;HPM_P1;HPM_P2
2023/05/02 00:01:21;;;;;;;6.25;4.07;;;;;;;;;;4368875;32;317298;-81
2023/05/02 00:03:53;;;;;;;6.07;3.87;;;;;;;;;;4379364;32;316541;-81
2023/05/02 00:06:21;;;;;;;4.70;3.97;;;;;;;;;;4370212;32;416139;-82
2023/05/02 00:08:49;;;;;;;8.27;4.63;;;;;;;;;;4369595;32;316587;-82
2023/05/02 00:11:18;;;;;;;5.85;4.28;;;;;;;;;;4358055;32;317045;-81
2023/05/02 00:13:46;;;;;;;4.43;3.67;;;;;;;;;;4365191;32;316644;-85
2023/05/02 00:16:13;;;;;;;7.97;4.37;;;;;;;;;;4356936;32;316551;-81
2023/05/02 00:18:39;;;;;;;4.30;3.50;;;;;;;;;;4369563;32;317378;-82
2023/05/02 00:21:07;;;;;;;7.47;3.97;;;;;;;;;;4357751;32;317151;-81
2023/05/02 00:23:34;;;;;;;4.72;4.25;;;;;;;;;;4368726;32;316554;-82
2023/05/02 00:26:00;;;;;;;6.47;3.80;;;;;;;;;;4358392;32;317190;-81
2023/05/02 00:28:29;;;;;;;4.28;3.83;;;;;;;;;;4367060;32;317196;-82
2023/05/02 00:30:58;;;;;;;7.53;4.18;;;;;;;;;;4358030;32;317385;-81
2023/05/02 00:33:25;;;;;;;4.78;4.28;;;;;;;;;;4353684;32;316526;-81
2023/05/02 00:35:52;;;;;;;6.50;4.30;;;;;;;;;;4364985;32;317191;-82
2023/05/02 00:38:19;;;;;;;5.47;3.90;;;;;;;;;;4373695;32;316692;-81
2023/05/02 00:40:49;;;;;;;6.12;4.25;;;;;;;;;;4382308;32;316341;-82
2023/05/02 00:43:16;;;;;;;7.35;4.00;;;;;;;;;;4373091;32;317193;-82
2023/05/02 00:45:45;;;;;;;4.80;3.65;;;;;;;;;;4374855;32;316534;-82
2023/05/02 00:48:12;;;;;;;5.53;3.58;;;;;;;;;;4370369;32;317076;-82
2023/05/02 00:50:41;;;;;;;8.85;3.78;;;;;;;;;;4381995;32;317440;-81
2023/05/02 00:53:09;;;;;;;6.75;3.62;;;;;;;;;;4372062;32;317072;-80
2023/05/02 00:55:36;;;;;;;6.30;3.93;;;;;;;;;;4367194;32;316560;-80
2023/05/02 00:58:08;;;;;;;5.75;3.65;;;;;;;;;;4372568;32;317689;-80
2023/05/02 01:00:45;;;;;;;7.53;3.05;;;;;;;;;;4381902;32;317376;-79
2023/05/02 01:03:21;;;;;;;7.18;3.75;;;;;;;;;;4366961;32;317137;-80
2023/05/02 01:05:57;;;;;;;4.85;3.85;;;;;;;;;;4382860;32;317197;-79
2023/05/02 01:08:34;;;;;;;5.43;3.78;;;;;;;;;;4361071;32;416292;-80
2023/05/02 01:11:14;;;;;;;4.23;3.40;;;;;;;;;;4371632;32;316954;-81
2023/05/02 01:13:44;;;;;;;5.80;3.73;;;;;;;;;;4382256;32;316271;-80
2023/05/02 01:16:13;;;;;;;6.30;3.50;;;;;;;;;;4371146;32;317471;-80
2023/05/02 01:18:43;;;;;;;5.93;3.80;;;;;;;;;;4381551;32;321602;-80
2023/05/02 01:21:12;;;;;;;3.87;3.30;;;;;;;;;;4372134;32;317272;-81
2023/05/02 01:23:47;;;;;;;6.95;3.92;;;;;;;;;;4380799;32;317195;-81
2023/05/02 01:26:20;;;;;;;5.12;3.78;;;;;;;;;;4380269;32;317211;-81
2023/05/02 01:29:14;;;;;;;6.12;3.92;;;;;;;;;;4384189;32;316600;-81
2023/05/02 01:31:44;;;;;;;5.93;4.27;;;;;;;;;;4382746;32;417561;-80
2023/05/02 01:34:11;;;;;;;5.45;4.10;;;;;;;;;;4385759;32;317194;-80
2023/05/02 01:36:43;;;;;;;6.50;4.55;;;;;;;;;;4394826;32;316102;-80
2023/05/02 01:39:11;;;;;;;6.37;4.32;;;;;;;;;;4372252;32;317093;-80
2023/05/02 01:41:39;;;;;;;6.83;4.33;;;;;;;;;;4384930;32;316597;-81
2023/05/02 01:44:07;;;;;;;5.57;4.07;;;;;;;;;;4375155;32;316908;-81
2023/05/02 01:46:39;;;;;;;9.55;4.28;;;;;;;;;;4386883;32;316976;-80
2023/05/02 01:49:10;;;;;;;6.70;4.03;;;;;;;;;;4374517;32;317747;-80
2023/05/02 01:51:43;;;;;;;4.60;3.53;;;;;;;;;;4384661;32;320369;-80
2023/05/02 01:54:12;;;;;;;3.80;3.27;;;;;;;;;;4373372;32;317323;-80
2023/05/02 01:56:40;;;;;;;3.60;2.60;;;;;;;;;;4384950;32;316551;-81
2023/05/02 01:59:12;;;;;;;3.87;3.08;;;;;;;;;;4374295;32;317142;-80
2023/05/02 02:01:42;;;;;;;3.67;2.75;;;;;;;;;;4383982;32;316922;-81
2023/05/02 02:04:12;;;;;;;3.63;3.17;;;;;;;;;;4359626;32;317249;-81
2023/05/02 02:06:39;;;;;;;4.22;3.15;;;;;;;;;;4384642;32;317069;-81
2023/05/02 02:09:06;;;;;;;3.90;3.42;;;;;;;;;;4360388;32;317315;-82
2023/05/02 02:11:36;;;;;;;5.78;4.00;;;;;;;;;;4363857;32;353412;-80
2023/05/02 02:14:08;;;;;;;5.32;3.58;;;;;;;;;;4366117;32;317334;-81
2023/05/02 02:16:38;;;;;;;4.30;3.62;;;;;;;;;;4371453;32;316859;-81
2023/05/02 02:19:10;;;;;;;8.67;3.50;;;;;;;;;;4363647;32;316917;-82
2023/05/02 02:21:39;;;;;;;4.60;3.20;;;;;;;;;;4371688;32;316616;-80
2023/05/02 02:24:10;;;;;;;4.50;3.63;;;;;;;;;;4373402;32;317642;-80
2023/05/02 02:26:37;;;;;;;3.33;3.03;;;;;;;;;;4382887;32;333020;-80
2023/05/02 02:29:04;;;;;;;4.70;3.03;;;;;;;;;;4374438;32;317120;-80
2023/05/02 02:31:32;;;;;;;6.43;3.65;;;;;;;;;;4384214;32;316491;-80
2023/05/02 02:33:59;;;;;;;6.40;4.70;;;;;;;;;;4374099;32;317112;-80
2023/05/02 02:36:33;;;;;;;4.57;3.17;;;;;;;;;;4383186;32;316489;-80
2023/05/02 02:39:09;;;;;;;5.87;3.50;;;;;;;;;;4372502;32;317112;-80
2023/05/02 02:41:40;;;;;;;4.57;3.53;;;;;;;;;;4382842;32;316699;-80
2023/05/02 02:44:21;;;;;;;5.83;3.73;;;;;;;;;;4372048;32;317829;-80
2023/05/02 02:46:54;;;;;;;4.27;3.80;;;;;;;;;;4370027;32;316653;-81
2023/05/02 02:49:29;;;;;;;5.20;3.60;;;;;;;;;;4369508;32;415015;-81
2023/05/02 02:52:05;;;;;;;19.90;12.20;;;;;;;;;;4363103;32;336057;-80
2023/05/02 02:54:39;;;;;;;30.47;18.60;;;;;;;;;;4382678;32;319176;-80
2023/05/02 02:57:12;;;;;;;19.50;13.73;;;;;;;;;;4373921;32;318697;-81
2023/05/02 02:59:47;;;;;;;12.07;7.43;;;;;;;;;;4375292;32;319369;-79
2023/05/02 03:02:18;;;;;;;15.20;7.30;;;;;;;;;;4365028;32;317674;-80
2023/05/02 03:04:49;;;;;;;15.27;9.43;;;;;;;;;;4369663;32;318182;-80
2023/05/02 03:07:17;;;;;;;14.40;6.20;;;;;;;;;;4363737;32;320588;-80
2023/05/02 03:09:45;;;;;;;9.07;6.03;;;;;;;;;;4367537;32;318104;-80
2023/05/02 03:12:12;;;;;;;7.90;5.57;;;;;;;;;;4350889;32;317297;-80
2023/05/02 03:14:39;;;;;;;10.97;6.10;;;;;;;;;;4360220;32;316791;-80
2023/05/02 03:17:07;;;;;;;10.80;6.00;;;;;;;;;;4368889;32;318157;-80
2023/05/02 03:19:33;;;;;;;6.57;5.47;;;;;;;;;;4396607;32;317441;-80
2023/05/02 03:22:00;;;;;;;12.53;5.23;;;;;;;;;;4388832;32;317164;-80
2023/05/02 03:24:28;;;;;;;8.17;5.77;;;;;;;;;;4395185;32;318153;-81
2023/05/02 03:26:57;;;;;;;17.43;6.23;;;;;;;;;;4373769;32;317082;-80
2023/05/02 03:29:27;;;;;;;8.30;5.13;;;;;;;;;;4382241;32;318212;-80
2023/05/02 03:31:54;;;;;;;12.40;4.87;;;;;;;;;;4372880;32;316684;-81
2023/05/02 03:34:21;;;;;;;7.73;5.60;;;;;;;;;;4383110;32;318624;-80
2023/05/02 03:36:48;;;;;;;10.57;7.30;;;;;;;;;;4383397;32;317121;-80
2023/05/02 03:39:16;;;;;;;9.05;6.70;;;;;;;;;;4371648;32;318172;-81
2023/05/02 03:41:45;;;;;;;13.67;9.30;;;;;;;;;;4380013;32;317256;-80
2023/05/02 03:44:12;;;;;;;11.60;7.50;;;;;;;;;;4372235;32;318396;-80
2023/05/02 03:46:39;;;;;;;17.57;7.43;;;;;;;;;;4383153;32;317884;-80
2023/05/02 03:49:06;;;;;;;12.87;8.70;;;;;;;;;;4372537;32;318261;-80
2023/05/02 03:51:34;;;;;;;13.30;8.33;;;;;;;;;;4382913;32;317333;-80
2023/05/02 03:54:01;;;;;;;12.70;8.03;;;;;;;;;;4358340;32;318152;-81
2023/05/02 03:56:28;;;;;;;18.40;10.93;;;;;;;;;;4368069;32;318181;-79
2023/05/02 03:58:56;;;;;;;14.10;10.00;;;;;;;;;;4371848;32;319253;-80
2023/05/02 04:01:24;;;;;;;21.07;10.33;;;;;;;;;;4382950;32;319463;-80
2023/05/02 04:03:52;;;;;;;14.90;10.33;;;;;;;;;;4381931;32;319097;-81
2023/05/02 04:06:19;;;;;;;13.83;10.77;;;;;;;;;;4368999;32;420300;-80
2023/05/02 04:08:46;;;;;;;16.73;10.83;;;;;;;;;;4371856;32;318674;-80
2023/05/02 04:11:13;;;;;;;17.20;11.70;;;;;;;;;;4356666;32;319164;-80
2023/05/02 04:13:40;;;;;;;21.63;12.83;;;;;;;;;;4362575;32;319058;-80
2023/05/02 04:16:09;;;;;;;19.23;12.87;;;;;;;;;;4357272;32;319310;-79
2023/05/02 04:18:36;;;;;;;22.13;12.53;;;;;;;;;;4367637;32;319354;-80
2023/05/02 04:21:08;;;;;;;21.40;13.30;;;;;;;;;;4354692;32;319275;-82
2023/05/02 04:23:35;;;;;;;16.27;11.17;;;;;;;;;;4367696;32;319024;-82
2023/05/02 04:26:01;;;;;;;29.27;12.00;;;;;;;;;;4357495;32;318819;-80
2023/05/02 04:28:28;;;;;;;20.73;10.43;;;;;;;;;;4359279;32;318417;-80
2023/05/02 04:30:56;;;;;;;17.90;10.33;;;;;;;;;;4355372;32;319155;-83
2023/05/02 04:33:26;;;;;;;20.43;11.70;;;;;;;;;;4378518;32;318887;-80
2023/05/02 04:35:53;;;;;;;28.10;21.87;;;;;;;;;;4372775;32;318700;-79
2023/05/02 04:38:20;;;;;;;19.33;13.33;;;;;;;;;;4375617;32;319285;-80
2023/05/02 04:40:47;;;;;;;24.93;18.10;;;;;;;;;;4365804;32;319401;-80
2023/05/02 04:43:14;;;;;;;17.90;10.93;;;;;;;;;;4356141;32;323718;-81
2023/05/02 04:45:41;;;;;;;33.33;11.40;;;;;;;;;;4366167;32;319515;-80
2023/05/02 04:48:08;;;;;;;27.65;15.73;;;;;;;;;;4359696;32;318519;-80
2023/05/02 04:50:36;;;;;;;24.90;14.20;;;;;;;;;;4378221;32;319378;-80
2023/05/02 04:53:03;;;;;;;24.33;14.67;;;;;;;;;;4369811;32;342907;-80
2023/05/02 04:55:30;;;;;;;19.97;10.57;;;;;;;;;;4382150;32;318611;-79
2023/05/02 04:57:56;;;;;;;10.63;7.90;;;;;;;;;;4365122;32;319161;-80
2023/05/02 05:00:23;;;;;;;7.53;6.57;;;;;;;;;;4392862;32;318081;-80
2023/05/02 05:02:51;;;;;;;13.00;7.10;;;;;;;;;;4373440;32;316536;-81
2023/05/02 05:05:17;;;;;;;13.23;10.00;;;;;;;;;;4368557;32;417251;-79
2023/05/02 05:07:45;;;;;;;13.97;8.73;;;;;;;;;;4381333;32;319145;-81
2023/05/02 05:10:12;;;;;;;11.07;8.63;;;;;;;;;;4369098;32;318148;-80
2023/05/02 05:12:41;;;;;;;9.23;7.27;;;;;;;;;;4364458;32;318440;-80
2023/05/02 05:15:08;;;;;;;13.40;8.43;;;;;;;;;;4356385;32;316485;-80
2023/05/02 05:17:36;;;;;;;11.23;7.43;;;;;;;;;;4366766;32;318143;-79
2023/05/02 05:20:06;;;;;;;15.47;9.00;;;;;;;;;;4356314;32;318148;-80
2023/05/02 05:22:39;;;;;;;10.20;7.07;;;;;;;;;;4366589;32;318819;-82
2023/05/02 05:25:12;;;;;;;11.93;7.80;;;;;;;;;;4358248;32;318327;-81
2023/05/02 05:27:39;;;;;;;15.63;9.77;;;;;;;;;;4370767;32;318359;-82
2023/05/02 05:30:07;;;;;;;13.90;8.13;;;;;;;;;;4369687;32;318537;-81
2023/05/02 05:32:34;;;;;;;15.20;8.23;;;;;;;;;;4381339;32;317844;-81
2023/05/02 05:35:03;;;;;;;9.70;7.53;;;;;;;;;;4371803;32;318541;-82
2023/05/02 05:37:30;;;;;;;7.77;6.60;;;;;;;;;;4378424;32;317447;-80
2023/05/02 05:39:57;;;;;;;10.47;6.97;;;;;;;;;;4350757;32;349622;-80
2023/05/02 05:42:25;;;;;;;13.10;5.97;;;;;;;;;;4363129;32;324524;-81
2023/05/02 05:44:53;;;;;;;7.77;6.30;;;;;;;;;;4362761;32;319005;-82
2023/05/02 05:47:24;;;;;;;12.07;7.63;;;;;;;;;;4379090;32;317210;-82
2023/05/02 05:49:53;;;;;;;10.03;6.57;;;;;;;;;;4381168;32;318709;-85
2023/05/02 05:52:20;;;;;;;10.03;7.10;;;;;;;;;;4355301;32;389132;-85
2023/05/02 05:54:47;;;;;;;14.83;7.27;;;;;;;;;;4382467;32;318701;-86
2023/05/02 05:57:16;;;;;;;9.37;8.03;;;;;;;;;;4377763;32;317698;-86
2023/05/02 05:59:45;;;;;;;9.10;7.27;;;;;;;;;;4384155;32;316416;-85
2023/05/02 06:02:13;;;;;;;16.45;7.05;;;;;;;;;;4356769;32;317411;-85
2023/05/02 06:04:42;;;;;;;11.47;5.87;;;;;;;;;;4378669;32;317615;-85
2023/05/02 06:07:10;;;;;;;12.53;6.40;;;;;;;;;;4368531;32;318226;-87
2023/05/02 06:09:37;;;;;;;15.43;6.37;;;;;;;;;;4362581;32;319054;-88
2023/05/02 06:12:06;;;;;;;10.57;6.20;;;;;;;;;;4356615;32;318377;-91
2023/05/02 06:14:33;;;;;;;9.90;7.30;;;;;;;;;;4366249;32;317985;-89
2023/05/02 06:17:01;;;;;;;8.57;6.67;;;;;;;;;;4355168;32;316560;-90
2023/05/02 06:19:27;;;;;;;12.50;6.60;;;;;;;;;;4365869;32;317272;-91
2023/05/02 06:21:54;;;;;;;12.07;7.33;;;;;;;;;;4358901;32;318178;-90
2023/05/02 06:24:21;;;;;;;10.57;6.67;;;;;;;;;;4360577;32;317719;-89
2023/05/02 06:26:50;;;;;;;19.20;7.10;;;;;;;;;;4373750;32;323139;-88
2023/05/02 06:29:17;;;;;;;20.93;7.37;;;;;;;;;;4385609;32;318135;-90
2023/05/02 06:31:45;;;;;;;23.77;8.67;;;;;;;;;;4373468;32;317509;-84
2023/05/02 06:34:13;;;;;;;24.07;6.67;;;;;;;;;;4385348;32;318187;-84
2023/05/02 06:36:39;;;;;;;13.13;7.57;;;;;;;;;;4374891;32;318345;-85
2023/05/02 06:39:06;;;;;;;13.37;7.20;;;;;;;;;;4383704;32;317924;-86
2023/05/02 06:41:33;;;;;;;13.90;7.60;;;;;;;;;;4374353;32;318301;-87
2023/05/02 06:44:00;;;;;;;17.27;7.53;;;;;;;;;;4385612;32;318280;-83
2023/05/02 06:46:29;;;;;;;14.70;7.20;;;;;;;;;;4385349;32;317297;-84
2023/05/02 06:48:56;;;;;;;17.83;9.23;;;;;;;;;;4374941;32;317395;-86
2023/05/02 06:51:25;;;;;;;13.03;6.93;;;;;;;;;;4382440;32;318148;-88
2023/05/02 06:53:51;;;;;;;18.40;7.20;;;;;;;;;;4372909;32;318342;-84
2023/05/02 06:56:24;;;;;;;12.23;7.25;;;;;;;;;;4384129;32;317520;-90
2023/05/02 06:58:51;;;;;;;18.23;8.13;;;;;;;;;;4373022;32;323151;-90
2023/05/02 07:01:18;;;;;;;15.10;6.87;;;;;;;;;;4390161;32;317393;-94
2023/05/02 07:03:46;;;;;;;12.73;6.93;;;;;;;;;;4377256;32;318222;-94
2023/05/02 07:06:13;;;;;;;10.73;6.73;;;;;;;;;;4371590;32;317712;-89
2023/05/02 07:08:41;;;;;;;18.87;6.80;;;;;;;;;;4359783;32;317531;-89
2023/05/02 07:11:08;;;;;;;11.83;8.00;;;;;;;;;;4365510;32;317804;-89
2023/05/02 07:13:34;;;;;;;11.23;6.73;;;;;;;;;;4357467;32;318265;-89
2023/05/02 07:16:02;;;;;;;11.47;7.20;;;;;;;;;;4367823;32;317993;-86
2023/05/02 07:18:29;;;;;;;15.03;7.00;;;;;;;;;;4367419;32;318602;-87
2023/05/02 07:20:56;;;;;;;13.50;7.60;;;;;;;;;;4357962;32;318016;-87
2023/05/02 07:23:23;;;;;;;11.80;6.55;;;;;;;;;;4367410;32;318492;-88
2023/05/02 07:25:51;;;;;;;12.23;6.15;;;;;;;;;;4356661;32;317706;-90
2023/05/02 07:28:18;;;;;;;11.10;6.10;;;;;;;;;;4371033;32;317775;-86
2023/05/02 07:30:45;;;;;;;12.00;5.90;;;;;;;;;;4370690;32;317748;-88
2023/05/02 07:33:11;;;;;;;11.18;5.45;;;;;;;;;;4382436;32;318361;-87
2023/05/02 07:35:41;;;;;;;11.85;5.80;;;;;;;;;;4375779;32;318264;-87
2023/05/02 07:38:07;;;;;;;13.82;5.90;;;;;;;;;;4385000;32;330264;-93
2023/05/02 07:40:34;;;;;;;7.62;5.60;;;;;;;;;;4359538;32;318021;-92
2023/05/02 07:43:02;;;;;;;11.88;6.12;;;;;;;;;;4371555;32;317153;-87
2023/05/02 07:45:29;;;;;;;14.25;6.45;;;;;;;;;;4366470;32;327789;-90
2023/05/02 07:47:56;;;;;;;13.05;6.28;;;;;;;;;;4358107;32;318078;-89
2023/05/02 07:50:23;;;;;;;15.68;5.70;;;;;;;;;;4377130;32;318362;-87
2023/05/02 07:52:50;;;;;;;11.68;5.53;;;;;;;;;;4373729;32;318572;-89
2023/05/02 07:55:17;;;;;;;9.13;7.05;;;;;;;;;;4383236;32;318045;-88
2023/05/02 07:57:45;;;;;;;8.57;4.32;;;;;;;;;;4372801;32;317509;-90
2023/05/02 08:00:15;;;;;;;10.75;5.43;;;;;;;;;;4382556;32;317119;-88
2023/05/02 08:02:42;;;;;;;9.48;4.68;;;;;;;;;;4372254;32;317772;-91
2023/05/02 08:05:09;;;;;;;9.07;4.70;;;;;;;;;;4372042;32;316554;-92
2023/05/02 08:07:36;;;;;;;10.07;5.20;;;;;;;;;;4357883;32;317404;-89
2023/05/02 08:10:03;;;;;;;9.23;5.00;;;;;;;;;;4367079;32;317496;-87
2023/05/02 08:12:30;;;;;;;8.68;4.18;;;;;;;;;;4367605;32;317005;-89
2023/05/02 08:14:57;;;;;;;6.47;4.18;;;;;;;;;;4353337;32;417234;-90
2023/05/02 08:17:27;;;;;;;7.57;4.80;;;;;;;;;;4367478;32;316341;-89
2023/05/02 08:19:54;;;;;;;10.70;4.45;;;;;;;;;;4357872;32;316582;-85
2023/05/02 08:22:23;;;;;;;5.65;4.80;;;;;;;;;;4366066;32;318349;-88
2023/05/02 08:24:49;;;;;;;8.38;5.10;;;;;;;;;;4357504;32;316336;-89
2023/05/02 08:27:16;;;;;;;9.98;4.90;;;;;;;;;;4366016;32;317269;-89
2023/05/02 08:29:43;;;;;;;7.50;5.00;;;;;;;;;;4367740;32;316584;-90
2023/05/02 08:32:10;;;;;;;12.43;4.95;;;;;;;;;;4385100;32;317133;-88
2023/05/02 08:34:38;;;;;;;9.85;4.47;;;;;;;;;;4371617;32;330637;-86
2023/05/02 08:37:09;;;;;;;8.07;4.53;;;;;;;;;;4380574;32;316545;-89
2023/05/02 08:39:35;;;;;;;19.92;5.40;;;;;;;;;;4362949;32;317387;-87
2023/05/02 08:42:06;;;;;;;11.38;4.82;;;;;;;;;;4366854;32;317613;-88
2023/05/02 08:44:33;;;;;;;12.37;5.55;;;;;;;;;;4356072;32;317784;-85
2023/05/02 08:47:00;;;;;;;19.77;4.70;;;;;;;;;;4373858;32;316610;-88
2023/05/02 08:49:29;;;;;;;16.33;4.25;;;;;;;;;;4381323;32;317585;-88
2023/05/02 08:51:59;;;;;;;20.10;5.93;;;;;;;;;;4372701;32;317435;-88
2023/05/02 08:54:27;;;;;;;9.50;5.90;;;;;;;;;;4380974;32;317466;-88
2023/05/02 08:56:54;;;;;;;11.12;5.55;;;;;;;;;;4370015;32;317432;-91
2023/05/02 08:59:21;;;;;;;8.63;5.12;;;;;;;;;;4381017;32;317666;-91
2023/05/02 09:01:53;;;;;;;9.50;3.60;;;;;;;;;;4371049;32;316522;-86
2023/05/02 09:04:23;;;;;;;8.93;4.68;;;;;;;;;;4382223;32;316363;-88
2023/05/02 09:06:50;;;;;;;6.22;3.85;;;;;;;;;;4370565;32;316452;-86
2023/05/02 09:09:19;;;;;;;6.12;3.95;;;;;;;;;;4383092;32;316937;-92
2023/05/02 09:11:51;;;;;;;24.33;4.15;;;;;;;;;;4370478;32;356165;-89
2023/05/02 09:14:19;;;;;;;4.65;2.78;;;;;;;;;;4378014;32;316851;-87
2023/05/02 09:16:47;;;;;;;7.68;2.60;;;;;;;;;;4374989;32;317380;-88
2023/05/02 09:19:24;;;;;;;3.33;2.72;;;;;;;;;;4388575;32;316467;-86
2023/05/02 09:21:51;;;;;;;4.95;2.28;;;;;;;;;;4376193;32;317434;-86
2023/05/02 09:24:22;;;;;;;3.75;2.45;;;;;;;;;;4383169;32;317282;-87
2023/05/02 09:26:58;;;;;;;5.05;2.60;;;;;;;;;;4364952;32;317288;-87
2023/05/02 09:29:29;;;;;;;8.02;2.85;;;;;;;;;;4386073;32;317139;-85
2023/05/02 09:31:57;;;;;;;6.28;4.32;;;;;;;;;;4373621;32;317075;-87
2023/05/02 09:34:24;;;;;;;8.90;2.55;;;;;;;;;;4369321;32;317070;-87
2023/05/02 09:36:56;;;;;;;4.53;2.30;;;;;;;;;;4361383;32;317302;-86
2023/05/02 09:39:27;;;;;;;5.78;2.70;;;;;;;;;;4372635;32;316471;-87
2023/05/02 09:41:55;;;;;;;7.53;2.85;;;;;;;;;;4365856;32;317253;-88
2023/05/02 09:44:24;;;;;;;4.32;2.50;;;;;;;;;;4380988;32;316505;-85
2023/05/02 09:46:56;;;;;;;10.55;2.72;;;;;;;;;;4371226;32;323347;-89
2023/05/02 09:49:40;;;;;;;6.82;2.17;;;;;;;;;;4385735;32;318966;-86
2023/05/02 09:52:12;;;;;;;4.30;3.10;;;;;;;;;;4371273;32;415805;-89
2023/05/02 09:54:41;;;;;;;2.55;2.35;;;;;;;;;;4351229;32;316411;-86
2023/05/02 09:57:09;;;;;;;3.60;2.62;;;;;;;;;;4368051;32;317266;-87
2023/05/02 09:59:36;;;;;;;9.13;2.25;;;;;;;;;;4371048;32;317235;-87
2023/05/02 10:02:06;;;;;;;5.53;2.78;;;;;;;;;;4382317;32;316443;-88
2023/05/02 10:04:36;;;;;;;8.25;2.33;;;;;;;;;;4369283;32;316819;-88
2023/05/02 10:07:05;;;;;;;5.37;2.65;;;;;;;;;;4368454;32;316849;-88
2023/05/02 10:09:35;;;;;;;6.20;3.37;;;;;;;;;;4369533;32;317184;-92
2023/05/02 10:12:06;;;;;;;11.57;2.25;;;;;;;;;;4358260;32;388821;-86
2023/05/02 10:14:40;;;;;;;3.97;2.00;;;;;;;;;;4359323;32;317415;-87
2023/05/02 10:17:28;;;;;;;4.30;2.45;;;;;;;;;;4355085;32;318110;-91
2023/05/02 10:20:00;;;;;;;4.50;1.85;;;;;;;;;;4360322;32;317116;-89
2023/05/02 10:22:27;;;;;;;9.95;2.45;;;;;;;;;;4380653;32;317115;-86
2023/05/02 10:24:57;;;;;;;3.95;2.30;;;;;;;;;;4374378;32;316944;-87
2023/05/02 10:27:26;;;;;;;3.22;2.08;;;;;;;;;;4374986;32;316367;-87
2023/05/02 10:29:54;;;;;;;3.20;2.10;;;;;;;;;;4374443;32;317009;-87
2023/05/02 10:32:22;;;;;;;2.47;2.15;;;;;;;;;;4383088;32;316996;-92
2023/05/02 10:34:51;;;;;;;5.50;2.58;;;;;;;;;;4373210;32;317098;-87
2023/05/02 10:37:20;;;;;;;2.70;2.30;;;;;;;;;;4383190;32;317203;-88
2023/05/02 10:39:47;;;;;;;4.60;2.33;;;;;;;;;;4374283;32;316446;-88
2023/05/02 10:42:16;;;;;;;5.12;2.30;;;;;;;;;;4382311;32;316449;-87
2023/05/02 10:44:44;;;;;;;4.37;2.00;;;;;;;;;;4373082;32;350128;-86
2023/05/02 10:47:20;;;;;;;2.53;2.33;;;;;;;;;;4383132;32;317109;-87
2023/05/02 10:49:52;;;;;;;3.95;2.03;;;;;;;;;;4374595;32;317340;-89
2023/05/02 10:52:32;;;;;;;5.03;2.17;;;;;;;;;;4383904;32;316312;-87
2023/05/02 10:55:16;;;;;;;3.47;1.77;;;;;;;;;;4357011;32;417038;-89
2023/05/02 10:58:20;;;;;;;5.97;2.25;;;;;;;;;;4365650;32;316655;-87
2023/05/02 11:00:48;;;;;;;3.25;1.60;;;;;;;;;;4356985;32;317160;-83
2023/05/02 11:03:15;;;;;;;7.60;1.80;;;;;;;;;;4365574;32;339644;-82
2023/05/02 11:06:04;;;;;;;3.22;2.00;;;;;;;;;;4369963;32;317442;-84
2023/05/02 11:08:31;;;;;;;4.80;2.67;;;;;;;;;;4383457;32;317214;-89
2023/05/02 11:11:36;;;;;;;6.03;2.70;;;;;;;;;;4371094;32;418847;-86
2023/05/02 11:14:03;;;;;;;8.63;2.12;;;;;;;;;;4372511;32;417320;-86
2023/05/02 11:19:31;;;;;;;5.40;1.90;;;;;;;;;;4422783;31;20261;-89
2023/05/02 11:22:33;;;;;;;3.37;1.50;;;;;;;;;;4371171;32;415195;-91
2023/05/02 11:24:59;;;;;;;6.90;2.37;;;;;;;;;;4388270;32;420350;-89
2023/05/02 11:27:42;;;;;;;17.35;2.15;;;;;;;;;;4400003;32;316402;-92
2023/05/02 11:30:15;;;;;;;3.83;1.90;;;;;;;;;;4386863;32;391583;-90
2023/05/02 11:33:25;;;;;;;3.03;1.60;;;;;;;;;;4385892;32;316358;-91
2023/05/02 11:35:55;;;;;;;4.72;2.25;;;;;;;;;;4363854;32;316370;-89
2023/05/02 11:38:23;;;;;;;2.55;1.25;;;;;;;;;;4399145;32;316596;-92
2023/05/02 11:41:04;;;;;;;2.83;1.70;;;;;;;;;;4387713;32;316661;-91
2023/05/02 11:43:34;;;;;;;9.52;2.28;;;;;;;;;;4398579;32;316453;-91
2023/05/02 11:46:04;;;;;;;3.92;1.70;;;;;;;;;;4385416;32;418014;-90
2023/05/02 11:48:32;;;;;;;4.18;1.70;;;;;;;;;;4398788;32;316685;-91
2023/05/02 11:51:03;;;;;;;4.32;1.58;;;;;;;;;;4385234;32;417028;-89
2023/05/02 11:53:33;;;;;;;4.62;1.62;;;;;;;;;;4399264;32;316467;-90
2023/05/02 11:56:15;;;;;;;6.85;1.40;;;;;;;;;;4378299;32;416639;-89
2023/05/02 11:58:43;;;;;;;4.72;1.75;;;;;;;;;;4386849;32;316705;-90
2023/05/02 12:01:13;;;;;;;7.60;2.45;;;;;;;;;;4399387;32;316930;-89
2023/05/02 12:03:41;;;;;;;5.28;1.60;;;;;;;;;;4379522;32;316569;-89
2023/05/02 12:06:14;;;;;;;3.15;1.87;;;;;;;;;;4398954;32;316453;-89
2023/05/02 12:08:43;;;;;;;7.10;1.70;;;;;;;;;;4376144;32;316499;-90
2023/05/02 12:11:13;;;;;;;3.78;1.75;;;;;;;;;;4401194;32;316279;-89
2023/05/02 12:13:46;;;;;;;1.80;1.25;;;;;;;;;;4403470;32;316233;-90
2023/05/02 12:16:13;;;;;;;1.95;1.75;;;;;;;;;;4394804;32;314974;-91
2023/05/02 12:18:41;;;;;;;2.37;1.80;;;;;;;;;;4386389;32;316372;-90
2023/05/02 12:21:08;;;;;;;4.68;1.58;;;;;;;;;;4398776;32;316970;-90
2023/05/02 12:23:37;;;;;;;6.32;1.70;;;;;;;;;;4387970;32;336444;-90
2023/05/02 12:26:17;;;;;;;3.70;1.70;;;;;;;;;;4391203;32;316533;-90
2023/05/02 12:28:49;;;;;;;12.43;2.03;;;;;;;;;;4385431;32;316258;-90
2023/05/02 12:31:19;;;;;;;10.52;1.95;;;;;;;;;;4389626;32;317348;-90
2023/05/02 12:33:49;;;;;;;3.00;1.65;;;;;;;;;;4359110;32;317711;-88
2023/05/02 12:36:16;;;;;;;2.05;1.70;;;;;;;;;;4389378;32;316414;-89
2023/05/02 12:38:51;;;;;;;6.22;1.40;;;;;;;;;;4378666;32;316548;-89
2023/05/02 12:41:18;;;;;;;5.87;1.65;;;;;;;;;;4389118;32;316561;-90
2023/05/02 12:43:47;;;;;;;7.53;1.80;;;;;;;;;;4378261;32;316622;-88
2023/05/02 12:46:15;;;;;;;3.65;1.50;;;;;;;;;;4385971;32;316492;-89
2023/05/02 12:48:42;;;;;;;8.30;1.60;;;;;;;;;;4375441;32;316592;-90
2023/05/02 12:51:23;;;;;;;2.37;1.67;;;;;;;;;;4375612;32;315656;-89
2023/05/02 12:53:52;;;;;;;2.15;1.52;;;;;;;;;;4378578;32;316251;-88
2023/05/02 12:56:19;;;;;;;3.40;1.50;;;;;;;;;;4388630;32;316581;-90
2023/05/02 12:58:48;;;;;;;2.80;1.60;;;;;;;;;;4346111;32;317335;-90
2023/05/02 13:01:16;;;;;;;2.87;1.50;;;;;;;;;;4374089;32;316450;-90
2023/05/02 13:03:44;;;;;;;4.35;1.58;;;;;;;;;;4376909;32;316404;-91
2023/05/02 13:06:11;;;;;;;2.33;1.30;;;;;;;;;;4381322;32;316296;-90
2023/05/02 13:08:39;;;;;;;6.47;1.67;;;;;;;;;;4368999;32;316511;-89
2023/05/02 13:11:08;;;;;;;8.57;1.77;;;;;;;;;;4389200;32;316339;-90
2023/05/02 13:13:35;;;;;;;2.08;1.35;;;;;;;;;;4375234;32;316703;-89
2023/05/02 13:16:03;;;;;;;1.45;1.20;;;;;;;;;;4389138;32;316595;-90
2023/05/02 13:18:31;;;;;;;2.35;1.25;;;;;;;;;;4387469;32;316753;-90
2023/05/02 13:21:00;;;;;;;1.75;1.17;;;;;;;;;;4373878;32;417378;-90
2023/05/02 13:23:27;;;;;;;2.25;1.48;;;;;;;;;;4388625;32;316425;-91
2023/05/02 13:25:57;;;;;;;5.62;1.40;;;;;;;;;;4368736;32;317087;-91
2023/05/02 13:28:26;;;;;;;25.20;2.83;;;;;;;;;;4386690;32;316087;-91
2023/05/02 13:30:54;;;;;;;3.92;1.62;;;;;;;;;;4378071;32;317613;-91
2023/05/02 13:33:22;;;;;;;3.05;1.58;;;;;;;;;;4376789;32;316409;-91
2023/05/02 13:35:49;;;;;;;4.87;1.80;;;;;;;;;;4376605;32;316392;-90
2023/05/02 13:38:16;;;;;;;2.70;1.95;;;;;;;;;;4380511;32;316505;-91
2023/05/02 13:40:45;;;;;;;8.80;1.58;;;;;;;;;;4376451;32;316665;-90
2023/05/02 13:43:14;;;;;;;2.28;1.45;;;;;;;;;;4386177;32;316522;-90
2023/05/02 13:45:43;;;;;;;3.58;1.77;;;;;;;;;;4375947;32;316684;-91
2023/05/02 13:48:10;;;;;;;3.83;2.28;;;;;;;;;;4387102;32;316534;-90
2023/05/02 13:50:38;;;;;;;4.00;1.85;;;;;;;;;;4363774;32;316513;-90
2023/05/02 13:53:05;;;;;;;4.28;1.70;;;;;;;;;;4388156;32;316174;-90
2023/05/02 13:55:34;;;;;;;6.82;1.95;;;;;;;;;;4375885;32;316336;-91
2023/05/02 13:58:01;;;;;;;1.83;1.60;;;;;;;;;;4352350;32;418938;-90
2023/05/02 14:00:28;;;;;;;2.53;1.62;;;;;;;;;;4384975;32;329057;-90
2023/05/02 14:02:57;;;;;;;14.77;2.05;;;;;;;;;;4375713;32;350349;-91
2023/05/02 14:05:24;;;;;;;11.90;2.17;;;;;;;;;;4387106;32;317696;-91
2023/05/02 14:07:51;;;;;;;2.42;1.60;;;;;;;;;;4377825;32;320942;-91
2023/05/02 14:10:18;;;;;;;2.05;1.30;;;;;;;;;;4400844;32;316132;-90
2023/05/02 14:12:45;;;;;;;4.05;1.30;;;;;;;;;;4384910;32;327718;-90
2023/05/02 14:15:14;;;;;;;2.25;1.30;;;;;;;;;;4389775;32;316443;-90
2023/05/02 14:17:41;;;;;;;3.45;1.37;;;;;;;;;;4372487;32;316671;-89
2023/05/02 14:20:15;;;;;;;2.53;1.70;;;;;;;;;;4388613;32;315162;-90
2023/05/02 14:22:42;;;;;;;2.85;1.90;;;;;;;;;;4377298;32;316442;-89
2023/05/02 14:25:09;;;;;;;3.83;3.12;;;;;;;;;;4396281;32;316458;-88
2023/05/02 14:27:37;;;;;;;8.27;1.95;;;;;;;;;;4382369;32;314943;-90
2023/05/02 14:30:04;;;;;;;7.40;2.03;;;;;;;;;;4390245;32;315009;-89
2023/05/02 14:32:31;;;;;;;5.45;1.87;;;;;;;;;;4400019;32;316279;-89
2023/05/02 14:34:58;;;;;;;1.98;1.67;;;;;;;;;;4386825;32;352060;-89
2023/05/02 14:37:28;;;;;;;5.35;1.73;;;;;;;;;;4395510;32;316308;-89
2023/05/02 14:39:57;;;;;;;1.70;1.50;;;;;;;;;;4380687;32;316226;-90